Neesea Larae — WDG3605 — position and weather

sailwx.info

Track history (hours):
 
Tides and Currents Weather Stations Pressure Air Temp Water Temp Dewpoint Dewpoint Depression Visibility Wind Speed Wind Dir Waves Ship Positions

Neesea Larae

More information available from US FCC via Universal Licensing System and Coast Guard Vessel Documentation Center.

Last reported at 2014-Jul-21 19:19 UTC. Time now 2014-Jul-24 21:43 UTC.
Position N 47°49' W 122°23'.

Type: Pleasure craft. MMSI: 367527770.

Date/timePositionNaut miles runAvg speedWind from/ knotsBaromVisibWave heightAir tempDewpointWater temp
2014-Jul-21 19:19N 47°49' W 122°23'3 3.9
2014-Jul-21 18:33N 47°52' W 122°23'  
2014-Jul-18 21:33N 48°28' W 122°31'7 6.8
2014-Jul-18 20:32N 48°32' W 122°40'8 8.4
2014-Jul-18 19:33N 48°34' W 122°52'  
2014-Jul-12 19:30N 49°09' W 123°41'9 9.9
2014-Jul-12 18:33N 49°17' W 123°48'1413.4
2014-Jul-12 17:31N 49°28' W 124°00'9 8.7
2014-Jul-12 16:32N 49°36' W 124°04'2 0.2
2014-Jul-12 05:19N 49°38' W 124°02'1 0.1
2014-Jul-11 22:33N 49°38' W 124°03'8 7.8
2014-Jul-11 21:32N 49°46' W 124°01'9 8.7
2014-Jul-11 20:33N 49°53' W 123°54'8 7.9
2014-Jul-11 19:34N 50°01' W 123°56'  
Track history (hours):
 
Tides and Currents Weather Stations Pressure Air Temp Water Temp Dewpoint Dewpoint Depression Visibility Wind Speed Wind Dir Waves Ship Positions

Neesea Larae

More information available from US FCC via Universal Licensing System and Coast Guard Vessel Documentation Center.

Last reported at 2014-Jul-21 19:19 UTC. Time now 2014-Jul-24 21:43 UTC.
Position N 47°49' W 122°23'.

Type: Pleasure craft. MMSI: 367527770.

Date/timePositionNaut miles runAvg speedWind from/ knotsBaromVisibWave heightAir tempDewpointWater temp
2014-Jul-21 19:19N 47°49' W 122°23'3 3.9
2014-Jul-21 18:33N 47°52' W 122°23'  
2014-Jul-18 21:33N 48°28' W 122°31'7 6.8
2014-Jul-18 20:32N 48°32' W 122°40'8 8.4
2014-Jul-18 19:33N 48°34' W 122°52'  
2014-Jul-12 19:30N 49°09' W 123°41'9 9.9
2014-Jul-12 18:33N 49°17' W 123°48'1413.4
2014-Jul-12 17:31N 49°28' W 124°00'9 8.7
2014-Jul-12 16:32N 49°36' W 124°04'2 0.2
2014-Jul-12 05:19N 49°38' W 124°02'1 0.1
2014-Jul-11 22:33N 49°38' W 124°03'8 7.8
2014-Jul-11 21:32N 49°46' W 124°01'9 8.7
2014-Jul-11 20:33N 49°53' W 123°54'8 7.9
2014-Jul-11 19:34N 50°01' W 123°56'  

Dump ship's entire track history